Time,TemperatureF,DewpointF,PressureIn,WindDirection,WindDirectionDegrees,WindSpeedMPH,WindSpeedGustMPH,Humidity,HourlyPrecipIn,Conditions,Clouds,dailyrainin,SoftwareType,DateUTC
2013-06-07 00:00:00,61.4,59.1,30.01,ESE,107,3.0,7.0,92,0.00,OVC,OVC,0.00,WeatherDisplay:10.31,2013-06-07 04:00:00,
2013-06-07 00:10:00,61.4,59.1,30.01,East,100,5.0,9.0,92,0.01,OVC,OVC,0.01,WeatherDisplay:10.31,2013-06-07 04:10:00,
2013-06-07 00:20:00,61.4,59.1,30.00,ESE,102,3.0,8.0,92,0.00,-RA,-RA,0.01,WeatherDisplay:10.31,2013-06-07 04:20:00,
2013-06-07 00:30:00,61.5,59.2,30.00,East,100,1.0,8.0,92,0.00,-RA,-RA,0.01,WeatherDisplay:10.31,2013-06-07 04:30:00,
2013-06-07 00:40:00,61.6,59.3,30.00,East,97,2.0,8.0,92,0.00,-RA,-RA,0.01,WeatherDisplay:10.31,2013-06-07 04:40:00,
2013-06-07 00:50:00,61.6,58.9,30.00,East,101,3.0,8.0,91,0.00,-RA,-RA,0.01,WeatherDisplay:10.31,2013-06-07 04:50:00,
2013-06-07 01:00:00,61.5,59.2,29.99,East,98,2.0,10.0,92,0.01,-RA,-RA,0.02,WeatherDisplay:10.31,2013-06-07 05:00:00,
2013-06-07 01:10:00,61.3,59.0,29.99,ESE,104,2.0,9.0,92,0.00,-RA,-RA,0.02,WeatherDisplay:10.31,2013-06-07 05:10:00,
2013-06-07 01:20:00,61.3,59.3,29.98,ESE,104,2.0,8.0,93,0.00,-RA,-RA,0.02,WeatherDisplay:10.31,2013-06-07 05:20:00,
2013-06-07 01:30:00,61.3,59.3,29.98,ESE,109,3.0,10.0,93,0.00,-RA,-RA,0.02,WeatherDisplay:10.31,2013-06-07 05:30:00,
2013-06-07 01:40:00,61.3,59.3,29.97,ESE,108,3.0,12.0,93,0.00,-RA,-RA,0.02,WeatherDisplay:10.31,2013-06-07 05:40:00,
2013-06-07 01:50:00,61.3,59.3,29.97,ESE,110,2.0,9.0,93,0.00,-RA,-RA,0.02,WeatherDisplay:10.31,2013-06-07 05:50:00,
2013-06-07 02:00:00,61.3,59.3,29.97,ESE,107,2.0,10.0,93,0.00,-RA,-RA,0.02,WeatherDisplay:10.31,2013-06-07 06:00:00,
2013-06-07 02:10:00,61.2,59.5,29.97,ESE,108,2.0,9.0,94,0.00,-RA,-RA,0.02,WeatherDisplay:10.31,2013-06-07 06:10:00,
2013-06-07 02:20:00,61.2,59.5,29.97,ESE,107,2.0,9.0,94,0.00,-RA,-RA,0.02,WeatherDisplay:10.31,2013-06-07 06:20:00,
2013-06-07 02:30:00,61.2,59.4,29.96,East,100,2.0,10.0,94,0.01,-RA,-RA,0.03,WeatherDisplay:10.31,2013-06-07 06:30:00,
2013-06-07 02:40:00,61.2,59.5,29.96,ESE,115,2.0,12.0,94,0.00,-RA,-RA,0.03,WeatherDisplay:10.31,2013-06-07 06:40:00,
2013-06-07 02:50:00,61.2,59.4,29.96,ESE,112,3.0,9.0,94,0.00,-RA,-RA,0.03,WeatherDisplay:10.31,2013-06-07 06:50:00,
2013-06-07 03:00:00,61.2,59.8,29.96,ESE,111,2.0,8.0,95,0.00,-RA,-RA,0.03,WeatherDisplay:10.31,2013-06-07 07:00:00,
2013-06-07 03:10:00,61.2,59.8,29.96,ESE,113,6.0,10.0,95,0.00,-RA,-RA,0.03,WeatherDisplay:10.31,2013-06-07 07:10:00,
2013-06-07 03:20:00,61.1,59.7,29.95,ESE,122,2.0,13.0,95,0.00,-RA,-RA,0.03,WeatherDisplay:10.31,2013-06-07 07:20:00,
2013-06-07 03:30:00,61.1,59.7,29.95,ESE,113,2.0,12.0,95,0.01,-RA,-RA,0.04,WeatherDisplay:10.31,2013-06-07 07:30:00,
2013-06-07 03:40:00,60.8,59.4,29.95,ESE,113,5.0,9.0,95,0.01,-RA,-RA,0.05,WeatherDisplay:10.31,2013-06-07 07:40:00,
2013-06-07 03:50:00,60.7,59.3,29.95,ESE,118,3.0,10.0,95,0.01,-RA,-RA,0.06,WeatherDisplay:10.31,2013-06-07 07:50:00,
2013-06-07 04:00:00,60.7,59.2,29.94,ESE,115,2.0,12.0,95,0.00,-RA,-RA,0.06,WeatherDisplay:10.31,2013-06-07 08:00:00,
2013-06-07 04:10:00,60.6,59.1,29.94,ESE,113,5.0,8.0,95,0.01,-RA,-RA,0.07,WeatherDisplay:10.31,2013-06-07 08:10:00,
2013-06-07 04:20:00,60.5,59.1,29.94,ESE,105,5.0,10.0,95,0.03,-RA,-RA,0.10,WeatherDisplay:10.31,2013-06-07 08:20:00,
2013-06-07 04:30:00,60.4,59.3,29.94,East,98,2.0,13.0,96,0.01,-RA,-RA,0.11,WeatherDisplay:10.31,2013-06-07 08:30:00,
2013-06-07 04:40:00,60.4,59.2,29.94,ESE,107,6.0,9.0,96,0.01,-RA,-RA,0.12,WeatherDisplay:10.31,2013-06-07 08:40:00,
2013-06-07 04:50:00,60.4,59.3,29.94,ESE,108,3.0,9.0,96,0.01,-RA,-RA,0.13,WeatherDisplay:10.31,2013-06-07 08:50:00,
2013-06-07 05:00:00,60.3,59.2,29.94,ESE,109,5.0,10.0,96,0.01,-RA,-RA,0.14,WeatherDisplay:10.31,2013-06-07 09:00:00,
2013-06-07 05:10:00,60.3,59.2,29.93,East,97,7.0,10.0,96,0.02,-RA,-RA,0.16,WeatherDisplay:10.31,2013-06-07 09:10:00,
2013-06-07 05:20:00,60.2,59.1,29.93,East,101,6.0,13.0,96,0.03,RA,RA,0.19,WeatherDisplay:10.31,2013-06-07 09:20:00,
2013-06-07 05:30:00,60.1,59.0,29.93,ESE,106,7.0,13.0,96,0.01,RA,RA,0.20,WeatherDisplay:10.31,2013-06-07 09:30:00,
2013-06-07 05:40:00,60.1,59.0,29.93,ESE,110,2.0,9.0,96,0.02,RA,RA,0.22,WeatherDisplay:10.31,2013-06-07 09:40:00,
2013-06-07 05:50:00,60.2,59.0,29.93,East,92,5.0,13.0,96,0.00,RA,RA,0.22,WeatherDisplay:10.31,2013-06-07 09:50:00,
2013-06-07 06:00:00,60.2,59.1,29.93,East,98,7.0,12.0,96,0.01,RA,RA,0.23,WeatherDisplay:10.31,2013-06-07 10:00:00,
2013-06-07 06:10:00,60.2,59.1,29.92,East,89,7.0,13.0,96,0.00,RA,RA,0.23,WeatherDisplay:10.31,2013-06-07 10:10:00,
2013-06-07 06:20:00,60.3,59.2,29.92,East,95,6.0,15.0,96,0.00,-RA,-RA,0.23,WeatherDisplay:10.31,2013-06-07 10:20:00,
2013-06-07 06:30:00,60.5,59.3,29.92,East,97,6.0,13.0,96,0.00,-RA,-RA,0.23,WeatherDisplay:10.31,2013-06-07 10:30:00,
2013-06-07 06:40:00,60.5,59.4,29.92,East,100,8.0,16.0,96,0.00,-RA,-RA,0.23,WeatherDisplay:10.31,2013-06-07 10:40:00,
2013-06-07 06:50:00,60.6,59.5,29.92,East,95,6.0,14.0,96,0.00,-RA,-RA,0.23,WeatherDisplay:10.31,2013-06-07 10:50:00,
2013-06-07 06:59:00,60.7,59.6,29.91,East,99,7.0,18.0,96,0.00,-RA,-RA,0.23,WeatherDisplay:10.31,2013-06-07 10:59:00,
2013-06-07 07:10:00,60.8,59.7,29.91,ESE,104,3.0,14.0,96,0.00,-RA,-RA,0.23,WeatherDisplay:10.31,2013-06-07 11:10:00,
2013-06-07 07:20:00,60.9,59.8,29.91,ESE,107,12.0,22.0,96,0.00,-RA,-RA,0.23,WeatherDisplay:10.31,2013-06-07 11:20:00,
2013-06-07 07:30:00,61.0,59.8,29.91,East,98,8.0,16.0,96,0.00,-RA,-RA,0.23,WeatherDisplay:10.31,2013-06-07 11:30:00,
2013-06-07 07:40:00,60.8,59.7,29.91,ESE,102,8.0,17.0,96,0.00,-RA,-RA,0.23,WeatherDisplay:10.31,2013-06-07 11:40:00,
2013-06-07 07:50:00,60.9,59.8,29.90,East,96,10.0,17.0,96,0.00,-RA,-RA,0.23,WeatherDisplay:10.31,2013-06-07 11:50:00,
2013-06-07 07:59:00,61.0,59.9,29.90,ESE,106,7.0,14.0,96,0.00,-RA,-RA,0.23,WeatherDisplay:10.31,2013-06-07 11:59:00,
2013-06-07 08:10:00,61.2,60.3,29.90,East,100,9.0,16.0,97,0.00,-RA,-RA,0.23,WeatherDisplay:10.31,2013-06-07 12:10:00,
2013-06-07 08:20:00,61.2,60.3,29.90,ESE,111,10.0,16.0,97,0.00,-RA,-RA,0.23,WeatherDisplay:10.31,2013-06-07 12:20:00,
2013-06-07 08:30:00,61.2,60.3,29.90,East,92,12.0,18.0,97,0.00,-RA,-RA,0.23,WeatherDisplay:10.31,2013-06-07 12:30:00,
2013-06-07 08:40:00,61.1,60.0,29.90,ESE,104,1.0,17.0,96,0.00,-RA,-RA,0.23,WeatherDisplay:10.31,2013-06-07 12:40:00,
2013-06-07 08:50:00,61.1,60.0,29.90,East,99,7.0,16.0,96,0.01,-RA,-RA,0.24,WeatherDisplay:10.31,2013-06-07 12:50:00,
2013-06-07 08:59:00,61.2,60.3,29.89,East,99,8.0,21.0,97,0.00,-RA,-RA,0.24,WeatherDisplay:10.31,2013-06-07 12:59:00,
2013-06-07 09:10:00,61.3,60.4,29.89,East,95,10.0,16.0,97,0.00,-RA,-RA,0.24,WeatherDisplay:10.31,2013-06-07 13:10:00,
2013-06-07 09:20:00,61.4,60.5,29.89,East,95,3.0,18.0,97,0.02,RA,RA,0.26,WeatherDisplay:10.31,2013-06-07 13:20:00,
2013-06-07 09:30:00,61.7,60.8,29.89,East,94,8.0,17.0,97,0.00,RA,RA,0.26,WeatherDisplay:10.31,2013-06-07 13:30:00,
2013-06-07 09:40:00,61.8,60.9,29.90,East,99,3.0,17.0,97,0.01,RA,RA,0.27,WeatherDisplay:10.31,2013-06-07 13:40:00,
2013-06-07 09:50:00,61.9,61.0,29.90,ESE,102,6.0,13.0,97,0.02,RA,RA,0.29,WeatherDisplay:10.31,2013-06-07 13:50:00,
2013-06-07 09:59:00,62.0,61.1,29.89,East,96,8.0,13.0,97,0.01,RA,RA,0.30,WeatherDisplay:10.31,2013-06-07 13:59:00,
2013-06-07 10:10:00,61.9,60.7,29.89,East,93,2.0,15.0,96,0.02,RA,RA,0.32,WeatherDisplay:10.31,2013-06-07 14:10:00,
2013-06-07 10:20:00,61.8,60.6,29.88,East,90,5.0,18.0,96,0.03, +RA, +RA,0.35,WeatherDisplay:10.31,2013-06-07 14:20:00,
2013-06-07 10:30:00,61.9,60.7,29.88,East,95,6.0,15.0,96,0.01, +RA, +RA,0.36,WeatherDisplay:10.31,2013-06-07 14:30:00,
2013-06-07 10:40:00,61.9,60.7,29.88,East,95,7.0,16.0,96,0.03, +RA, +RA,0.39,WeatherDisplay:10.31,2013-06-07 14:40:00,
2013-06-07 10:50:00,61.8,60.6,29.88,East,94,6.0,15.0,96,0.03, +RA, +RA,0.42,WeatherDisplay:10.31,2013-06-07 14:50:00,
2013-06-07 11:00:00,61.8,60.6,29.87,East,90,12.0,20.0,96,0.03, +RA, +RA,0.45,WeatherDisplay:10.31,2013-06-07 15:00:00,
2013-06-07 11:10:00,62.0,60.8,29.87,East,90,10.0,18.0,96,0.02, +RA, +RA,0.47,WeatherDisplay:10.31,2013-06-07 15:10:00,
2013-06-07 11:20:00,61.9,60.7,29.87,East,93,8.0,16.0,96,0.01,RA,RA,0.48,WeatherDisplay:10.31,2013-06-07 15:20:00,
2013-06-07 11:30:00,62.1,60.9,29.87,East,96,6.0,16.0,96,0.01,RA,RA,0.49,WeatherDisplay:10.31,2013-06-07 15:30:00,
2013-06-07 11:40:00,62.0,60.8,29.87,East,93,12.0,16.0,96,0.01,RA,RA,0.50,WeatherDisplay:10.31,2013-06-07 15:40:00,
2013-06-07 11:50:00,62.0,60.9,29.87,East,90,5.0,14.0,96,0.01,RA,RA,0.51,WeatherDisplay:10.31,2013-06-07 15:50:00,
2013-06-07 12:00:00,62.0,60.8,29.87,ESE,102,7.0,17.0,96,0.02,RA,RA,0.53,WeatherDisplay:10.31,2013-06-07 16:00:00,
2013-06-07 12:10:00,61.9,60.7,29.87,East,93,5.0,13.0,96,0.02,RA,RA,0.55,WeatherDisplay:10.31,2013-06-07 16:10:00,
2013-06-07 12:20:00,61.8,60.6,29.87,East,99,8.0,15.0,96,0.03,-RA,-RA,0.58,WeatherDisplay:10.31,2013-06-07 16:20:00,
2013-06-07 12:30:00,61.7,60.5,29.87,East,92,9.0,16.0,96,0.02,-RA,-RA,0.60,WeatherDisplay:10.31,2013-06-07 16:30:00,
2013-06-07 12:40:00,61.6,60.4,29.86,East,90,9.0,17.0,96,0.02,-RA,-RA,0.62,WeatherDisplay:10.31,2013-06-07 16:40:00,
2013-06-07 12:50:00,61.5,60.4,29.86,East,90,8.0,15.0,96,0.01,-RA,-RA,0.63,WeatherDisplay:10.31,2013-06-07 16:50:00,
2013-06-07 13:00:00,61.5,60.3,29.86,ESE,104,8.0,12.0,96,0.03,-RA,-RA,0.66,WeatherDisplay:10.31,2013-06-07 17:00:00,
2013-06-07 13:10:00,61.6,60.4,29.85,East,85,7.0,15.0,96,0.02,-RA,-RA,0.68,WeatherDisplay:10.31,2013-06-07 17:10:00,
2013-06-07 13:20:00,61.8,60.6,29.85,East,100,5.0,12.0,96,0.02,RA,RA,0.70,WeatherDisplay:10.31,2013-06-07 17:20:00,
2013-06-07 13:30:00,62.0,60.8,29.85,East,95,5.0,13.0,96,0.02,RA,RA,0.72,WeatherDisplay:10.31,2013-06-07 17:30:00,
2013-06-07 13:40:00,62.1,60.9,29.84,East,95,6.0,12.0,96,0.01,RA,RA,0.73,WeatherDisplay:10.31,2013-06-07 17:40:00,
2013-06-07 13:50:00,62.2,61.0,29.84,East,89,5.0,12.0,96,0.01,RA,RA,0.74,WeatherDisplay:10.31,2013-06-07 17:50:00,
2013-06-07 14:00:00,62.5,61.6,29.84,East,91,6.0,9.0,97,0.00,RA,RA,0.74,WeatherDisplay:10.31,2013-06-07 18:00:00,
2013-06-07 14:20:00,63.0,62.1,29.83,East,81,5.0,8.0,97,0.01, +RA, +RA,0.76,WeatherDisplay:10.31,2013-06-07 18:20:00,
2013-06-07 14:30:00,63.2,62.3,29.83,ENE,77,1.0,8.0,97,0.02, +RA, +RA,0.78,WeatherDisplay:10.31,2013-06-07 18:30:00,
2013-06-07 14:50:00,63.6,62.7,29.82,ENE,65,3.0,6.0,97,0.02, +RA, +RA,0.82,WeatherDisplay:10.31,2013-06-07 18:50:00,
2013-06-07 15:00:00,63.7,62.8,29.82,East,86,2.0,7.0,97,0.02, +RA, +RA,0.84,WeatherDisplay:10.31,2013-06-07 19:00:00,
2013-06-07 15:10:00,63.7,62.8,29.81,NE,46,3.0,7.0,97,0.01, +RA, +RA,0.85,WeatherDisplay:10.31,2013-06-07 19:10:00,
2013-06-07 15:20:00,63.7,62.8,29.81,NE,54,2.0,7.0,97,0.02,RA,RA,0.87,WeatherDisplay:10.31,2013-06-07 19:20:00,
2013-06-07 15:30:00,63.9,63.0,29.80,ENE,57,3.0,8.0,97,0.01,RA,RA,0.88,WeatherDisplay:10.31,2013-06-07 19:30:00,
2013-06-07 15:40:00,63.8,63.0,29.80,ENE,62,2.0,7.0,97,0.04,RA,RA,0.92,WeatherDisplay:10.31,2013-06-07 19:40:00,
2013-06-07 15:50:00,63.8,62.9,29.79,ENE,59,2.0,9.0,97,0.06,RA,RA,0.98,WeatherDisplay:10.31,2013-06-07 19:50:00,
2013-06-07 16:00:00,63.8,62.9,29.78,NE,53,6.0,9.0,97,0.04,RA,RA,1.02,WeatherDisplay:10.31,2013-06-07 20:00:00,
2013-06-07 16:10:00,63.8,62.9,29.77,ENE,58,2.0,8.0,97,0.07,RA,RA,1.10,WeatherDisplay:10.31,2013-06-07 20:10:00,
2013-06-07 16:30:00,63.5,62.6,29.76,NE,44,5.0,12.0,97,0.03, +RA, +RA,1.18,WeatherDisplay:10.31,2013-06-07 20:30:00,
2013-06-07 17:00:00,63.0,62.1,29.75,NE,46,2.0,12.0,97,0.11, +RA, +RA,1.42,WeatherDisplay:10.31,2013-06-07 21:00:00,
2013-06-07 17:10:00,63.0,62.1,29.75,NE,48,3.0,7.0,97,0.11, +RA, +RA,1.53,WeatherDisplay:10.31,2013-06-07 21:10:00,
2013-06-07 17:20:00,63.0,62.1,29.72,NE,46,5.0,12.0,97,0.09, +RA, +RA,1.62,WeatherDisplay:10.31,2013-06-07 21:20:00,
2013-06-07 17:30:00,62.9,62.1,29.71,NE,43,3.0,13.0,97,0.04, +RA, +RA,1.66,WeatherDisplay:10.31,2013-06-07 21:30:00,
2013-06-07 17:40:00,62.8,61.9,29.72,NE,37,2.0,10.0,97,0.02, +RA, +RA,1.68,WeatherDisplay:10.31,2013-06-07 21:40:00,
2013-06-07 17:50:00,62.7,61.8,29.71,NE,39,3.0,9.0,97,0.00, +RA, +RA,1.68,WeatherDisplay:10.31,2013-06-07 21:50:00,
2013-06-07 18:00:00,62.5,61.6,29.71,NE,36,6.0,9.0,97,0.03,RA,RA,1.71,WeatherDisplay:10.31,2013-06-07 22:00:00,
2013-06-07 18:10:00,62.2,61.4,29.71,NNE,33,5.0,12.0,97,0.01,RA,RA,1.72,WeatherDisplay:10.31,2013-06-07 22:10:00,
2013-06-07 18:20:00,62.2,61.3,29.72,NNE,33,6.0,9.0,97,0.02,RA,RA,1.74,WeatherDisplay:10.31,2013-06-07 22:20:00,
2013-06-07 18:30:00,61.9,61.1,29.72,NNE,33,6.0,9.0,97,0.02,RA,RA,1.76,WeatherDisplay:10.31,2013-06-07 22:30:00,
2013-06-07 18:40:00,61.7,60.8,29.72,NNE,30,8.0,10.0,97,0.01,RA,RA,1.77,WeatherDisplay:10.31,2013-06-07 22:40:00,
2013-06-07 18:50:00,61.2,60.3,29.70,NE,35,9.0,14.0,97,0.00,RA,RA,1.77,WeatherDisplay:10.31,2013-06-07 22:50:00,
2013-06-07 19:00:00,60.9,60.0,29.70,NE,40,8.0,15.0,97,0.04,RA,RA,1.81,WeatherDisplay:10.31,2013-06-07 23:00:00,
2013-06-07 19:10:00,60.7,59.8,29.71,NE,37,6.0,14.0,97,0.08,RA,RA,1.89,WeatherDisplay:10.31,2013-06-07 23:10:00,
2013-06-07 19:20:00,60.5,59.6,29.70,NE,35,6.0,12.0,97,0.01,RA,RA,1.90,WeatherDisplay:10.31,2013-06-07 23:20:00,
2013-06-07 19:30:00,60.5,59.6,29.70,NE,43,5.0,12.0,97,0.02,RA,RA,1.92,WeatherDisplay:10.31,2013-06-07 23:30:00,
2013-06-07 19:40:00,60.5,59.7,29.71,NE,49,3.0,12.0,97,0.03, +RA, +RA,1.95,WeatherDisplay:10.31,2013-06-07 23:40:00,
2013-06-07 19:50:00,60.7,59.9,29.70,NE,53,2.0,9.0,97,0.05, +RA, +RA,2.00,WeatherDisplay:10.31,2013-06-07 23:50:00,
2013-06-07 20:00:00,60.4,59.5,29.70,ENE,58,6.0,14.0,97,0.01, +RA, +RA,2.01,WeatherDisplay:10.31,2013-06-08 00:00:00,
2013-06-07 20:10:00,60.0,59.1,29.68,NE,48,7.0,17.0,97,0.07, +RA, +RA,2.08,WeatherDisplay:10.31,2013-06-08 00:10:00,
2013-06-07 20:20:00,59.8,58.9,29.68,NE,53,6.0,16.0,97,0.04,-RA,-RA,2.12,WeatherDisplay:10.31,2013-06-08 00:20:00,
2013-06-07 20:30:00,59.7,58.8,29.69,NE,55,6.0,12.0,97,0.01,-RA,-RA,2.13,WeatherDisplay:10.31,2013-06-08 00:30:00,
2013-06-07 20:40:00,59.7,58.8,29.68,NE,40,6.0,12.0,97,0.01,-RA,-RA,2.14,WeatherDisplay:10.31,2013-06-08 00:40:00,
2013-06-07 20:50:00,59.7,58.8,29.68,NE,45,7.0,12.0,97,0.00,-RA,-RA,2.14,WeatherDisplay:10.31,2013-06-08 00:50:00,
2013-06-07 21:00:00,59.8,58.9,29.68,NE,53,3.0,12.0,97,0.02,-RA,-RA,2.16,WeatherDisplay:10.31,2013-06-08 01:00:00,
2013-06-07 21:30:00,60.1,59.2,29.67,NE,36,5.0,12.0,97,0.03,-RA,-RA,2.27,WeatherDisplay:10.31,2013-06-08 01:30:00,
2013-06-07 21:40:00,60.2,59.3,29.67,NE,40,6.0,12.0,97,0.02,-RA,-RA,2.29,WeatherDisplay:10.31,2013-06-08 01:40:00,
2013-06-07 22:00:00,60.5,59.6,29.66,NE,42,7.0,13.0,97,0.01, +RA, +RA,2.36,WeatherDisplay:10.31,2013-06-08 02:00:00,
2013-06-07 22:10:00,60.8,59.9,29.65,NE,37,7.0,12.0,97,0.04, +RA, +RA,2.40,WeatherDisplay:10.31,2013-06-08 02:10:00,
2013-06-07 22:20:00,60.9,60.0,29.64,NE,43,5.0,12.0,97,0.12, +RA, +RA,2.52,WeatherDisplay:10.31,2013-06-08 02:20:00,
2013-06-07 22:40:00,61.4,60.5,29.65,ENE,73,5.0,10.0,97,0.00, +RA, +RA,2.56,WeatherDisplay:10.31,2013-06-08 02:40:00,
2013-06-07 23:00:00,61.0,60.1,29.64,NNW,334,3.0,9.0,97,0.00, +RA, +RA,2.56,WeatherDisplay:10.31,2013-06-08 03:00:00,
2013-06-07 23:10:00,62.3,61.8,29.62,NNE,24,6.0,15.0,98,0.00, +RA, +RA,2.56,WeatherDisplay:10.31,2013-06-08 03:10:00,
2013-06-07 23:20:00,62.1,61.2,29.62,North,6,5.0,10.0,97,0.00, +RA, +RA,2.56,WeatherDisplay:10.31,2013-06-08 03:20:00,
2013-06-07 23:30:00,61.9,61.0,29.61,NNE,25,3.0,10.0,97,0.00, +RA, +RA,2.56,WeatherDisplay:10.31,2013-06-08 03:30:00,
2013-06-07 23:40:00,62.3,61.4,29.61,NE,53,3.0,12.0,97,0.00,OVC,OVC,2.56,WeatherDisplay:10.31,2013-06-08 03:40:00,
2013-06-07 23:50:00,62.3,61.4,29.60,NE,49,2.0,6.0,97,0.00,OVC,OVC,2.56,WeatherDisplay:10.31,2013-06-08 03:50:00,